createdAt,value
2019-03-10T00:00:35.205Z,101334.70
2019-03-10T00:03:04.994Z,101326.88
2019-03-10T00:05:34.347Z,101323.41
2019-03-10T00:08:03.684Z,101315.95
2019-03-10T00:10:33.048Z,101300.78
2019-03-10T00:13:02.376Z,101294.72
2019-03-10T00:15:31.717Z,101288.02
2019-03-10T00:18:01.039Z,101286.72
2019-03-10T00:20:30.670Z,101286.34
2019-03-10T00:23:00.289Z,101284.95
2019-03-10T00:25:29.609Z,101285.05
2019-03-10T00:27:58.940Z,101276.34
2019-03-10T00:30:28.605Z,101277.98
2019-03-10T00:32:58.167Z,101273.53
2019-03-10T00:35:27.493Z,101277.02
2019-03-10T00:37:57.064Z,101279.72
2019-03-10T00:40:46.987Z,101282.35
2019-03-10T00:43:36.133Z,101271.48
2019-03-10T00:46:26.420Z,101266.78
2019-03-10T00:49:15.587Z,101261.03
2019-03-10T00:52:08.590Z,101256.80
2019-03-10T00:54:38.187Z,101251.45
2019-03-10T00:57:07.594Z,101253.66
2019-03-10T00:59:36.918Z,101244.92
2019-03-10T01:02:06.242Z,101253.57
2019-03-10T01:04:35.574Z,101254.34
2019-03-10T01:07:04.988Z,101247.37
2019-03-10T01:09:34.317Z,101249.09
2019-03-10T01:12:03.780Z,101250.41
2019-03-10T01:14:33.947Z,101233.02
2019-03-10T01:17:03.814Z,101222.56
2019-03-10T01:19:35.089Z,101221.69
2019-03-10T01:22:04.557Z,101218.22
2019-03-10T01:24:33.895Z,101203.42
2019-03-10T01:27:03.587Z,101192.16
2019-03-10T01:29:33.108Z,101194.30
2019-03-10T01:32:20.156Z,101180.48
2019-03-10T01:34:58.291Z,101180.00
2019-03-10T01:37:27.665Z,101174.97
2019-03-10T01:39:57.251Z,101158.36
2019-03-10T01:42:26.741Z,101160.07
2019-03-10T01:44:56.381Z,101166.94
2019-03-10T01:47:25.706Z,101157.36
2019-03-10T01:49:55.038Z,101152.67
2019-03-10T01:52:24.360Z,101153.09
2019-03-10T01:54:53.699Z,101141.81
2019-03-10T01:57:23.030Z,101138.80
2019-03-10T01:59:52.385Z,101135.73
2019-03-10T02:02:25.719Z,101129.20
2019-03-10T02:04:52.779Z,101119.72
2019-03-10T02:07:22.107Z,101114.50
2019-03-10T02:09:51.448Z,101098.84
2019-03-10T02:12:20.826Z,101088.41
2019-03-10T02:14:50.145Z,101083.20
2019-03-10T02:17:20.439Z,101073.73
2019-03-10T02:19:50.179Z,101065.03
2019-03-10T02:22:19.497Z,101053.75
2019-03-10T02:24:48.843Z,101045.56
2019-03-10T02:27:18.174Z,101036.80
2019-03-10T02:29:47.505Z,101023.74
2019-03-10T02:32:16.839Z,101010.20
2019-03-10T02:34:46.232Z,101002.78
2019-03-10T02:37:15.631Z,100997.16
2019-03-10T02:39:44.952Z,101002.43
2019-03-10T02:42:14.284Z,100988.45
2019-03-10T02:44:43.631Z,100984.91
2019-03-10T02:47:13.186Z,100975.25
2019-03-10T02:49:42.822Z,100966.98
2019-03-10T02:52:12.154Z,100961.70
2019-03-10T02:54:41.484Z,100956.46
2019-03-10T02:57:11.041Z,100946.02
2019-03-10T02:59:40.366Z,100943.84
2019-03-10T03:02:09.943Z,100945.89
2019-03-10T03:04:39.558Z,100942.45
2019-03-10T03:07:08.864Z,100929.80
2019-03-10T03:09:38.185Z,100927.23
2019-03-10T03:12:07.517Z,100923.33
2019-03-10T03:14:36.850Z,100914.06
2019-03-10T03:17:06.179Z,100904.48
2019-03-10T03:19:35.524Z,100885.83
2019-03-10T03:22:04.862Z,100880.51
2019-03-10T03:24:34.263Z,100877.90
2019-03-10T03:27:03.880Z,100872.59
2019-03-10T03:29:33.866Z,100870.87
2019-03-10T03:32:03.219Z,100858.19
2019-03-10T03:34:32.529Z,100863.05
2019-03-10T03:37:01.860Z,100849.53
2019-03-10T03:39:32.727Z,100846.48
2019-03-10T03:42:02.080Z,100841.61
2019-03-10T03:44:31.380Z,100835.53
2019-03-10T03:47:00.717Z,100832.86
2019-03-10T03:49:30.052Z,100821.55
2019-03-10T03:51:59.593Z,100814.59
2019-03-10T03:54:28.912Z,100805.32
2019-03-10T03:56:58.247Z,100793.25
2019-03-10T03:59:28.145Z,100780.56
2019-03-10T04:01:59.118Z,100780.50
2019-03-10T04:04:28.538Z,100776.95
2019-03-10T04:06:57.861Z,100772.53
2019-03-10T04:09:28.252Z,100762.87
2019-03-10T04:11:57.592Z,100752.37
2019-03-10T04:14:26.913Z,100741.86
2019-03-10T04:16:56.254Z,100737.52
2019-03-10T04:19:25.603Z,100727.92
2019-03-10T04:21:54.912Z,100717.11
2019-03-10T04:24:24.289Z,100708.39
2019-03-10T04:26:53.595Z,100705.34
2019-03-10T04:29:23.261Z,100695.80
2019-03-10T04:31:52.593Z,100690.05
2019-03-10T04:34:21.911Z,100685.27
2019-03-10T04:36:51.242Z,100686.06
2019-03-10T04:39:20.572Z,100682.53
2019-03-10T04:41:49.968Z,100678.12
2019-03-10T04:44:19.227Z,100671.16
2019-03-10T04:46:48.548Z,100663.78
2019-03-10T04:49:17.867Z,100656.33
2019-03-10T04:51:47.194Z,100651.50
2019-03-10T04:54:18.171Z,100643.65
2019-03-10T04:56:49.142Z,100636.22
2019-03-10T04:59:18.475Z,100620.58
